Time;durP1;ratioP1;P1;durP2;ratioP2;P2;SDS_P1;SDS_P2;PMS_P1;PMS_P2;Temp;Humidity;BMP_temperature;BMP_pressure;BME280_temperature;BME280_humidity;BME280_pressure;Samples;Min_cycle;Max_cycle;Signal;HPM_P1;HPM_P2
2022/09/08 00:00:31;;;;;;;0.50;0.50;;;24.10;66.60;;;;;;5003924;28;20065;-46
2022/09/08 00:02:58;;;;;;;0.70;0.50;;;24.00;66.30;;;;;;4997714;28;20101;-42
2022/09/08 00:05:24;;;;;;;0.98;0.52;;;24.00;66.40;;;;;;5008144;28;20504;-45
2022/09/08 00:07:51;;;;;;;0.70;0.40;;;24.10;66.30;;;;;;5001345;28;20069;-46
2022/09/08 00:10:17;;;;;;;0.50;0.50;;;24.00;66.40;;;;;;5003160;28;20042;-41
2022/09/08 00:12:44;;;;;;;0.70;0.55;;;24.00;66.40;;;;;;4999547;28;20080;-47
2022/09/08 00:15:10;;;;;;;1.40;0.95;;;24.00;66.40;;;;;;4997774;28;20113;-41
2022/09/08 00:17:35;;;;;;;0.50;0.50;;;24.00;66.30;;;;;;5002798;28;20069;-45
2022/09/08 00:20:01;;;;;;;0.95;0.50;;;24.00;66.30;;;;;;4999255;28;20296;-45
2022/09/08 00:22:27;;;;;;;0.98;0.40;;;24.00;66.30;;;;;;4999420;28;20042;-39
2022/09/08 00:24:52;;;;;;;0.80;0.50;;;24.00;66.30;;;;;;5000285;28;20038;-29
2022/09/08 00:27:18;;;;;;;1.65;0.32;;;24.00;66.30;;;;;;4997927;28;20055;-40
2022/09/08 00:29:43;;;;;;;0.90;0.50;;;24.00;66.30;;;;;;5003430;28;20046;-40
2022/09/08 00:32:10;;;;;;;0.40;0.30;;;24.00;66.30;;;;;;4997022;28;20038;-40
2022/09/08 00:34:35;;;;;;;0.32;0.32;;;24.00;66.30;;;;;;5013700;28;20110;-42
2022/09/08 00:37:02;;;;;;;0.63;0.47;;;24.00;66.30;;;;;;5001069;28;20042;-53
2022/09/08 00:39:27;;;;;;;0.60;0.38;;;24.00;66.30;;;;;;4998941;28;20054;-40
2022/09/08 00:41:54;;;;;;;0.55;0.30;;;24.00;66.20;;;;;;5001886;28;20046;-43
2022/09/08 00:44:40;;;;;;;0.47;0.40;;;24.00;66.30;;;;;;5006903;28;20034;-45
2022/09/08 00:47:16;;;;;;;0.68;0.50;;;24.00;66.30;;;;;;4997856;28;20052;-45
2022/09/08 00:49:42;;;;;;;0.30;0.30;;;24.00;66.40;;;;;;5003247;28;20034;-40
2022/09/08 00:52:08;;;;;;;0.50;0.40;;;24.00;66.70;;;;;;4997571;28;20065;-39
2022/09/08 00:54:33;;;;;;;0.40;0.30;;;24.00;66.30;;;;;;4995673;28;20050;-53
2022/09/08 00:56:59;;;;;;;0.40;0.40;;;24.00;66.30;;;;;;4995489;28;20107;-48
2022/09/08 00:59:24;;;;;;;0.80;0.40;;;23.90;66.40;;;;;;4998545;28;20584;-44
2022/09/08 01:01:51;;;;;;;1.02;0.73;;;24.00;66.40;;;;;;4998196;28;20053;-44
2022/09/08 01:04:16;;;;;;;0.77;0.50;;;24.00;66.60;;;;;;5001114;28;20054;-54
2022/09/08 01:12:46;;;;;;;0.30;0.30;;;24.00;66.30;;;;;;5000396;28;20420;-51
2022/09/08 01:15:23;;;;;;;0.55;0.30;;;24.00;66.40;;;;;;4997150;28;20038;-46
2022/09/08 01:17:51;;;;;;;0.50;0.35;;;24.00;66.20;;;;;;5015053;28;20053;-45
2022/09/08 01:20:19;;;;;;;0.55;0.40;;;24.00;66.20;;;;;;4997092;28;20042;-55
2022/09/08 01:23:09;;;;;;;2.78;0.60;;;23.90;66.30;;;;;;5011777;28;20046;-54
2022/09/08 01:26:08;;;;;;;1.00;0.60;;;24.00;66.30;;;;;;5001931;28;20041;-51
2022/09/08 01:28:46;;;;;;;0.70;0.38;;;23.90;66.30;;;;;;4997423;28;20049;-57
2022/09/08 01:31:12;;;;;;;0.82;0.45;;;23.90;66.20;;;;;;4999851;28;20161;-57
2022/09/08 01:33:38;;;;;;;0.32;0.32;;;23.90;66.30;;;;;;5008815;28;20125;-56
2022/09/08 01:36:11;;;;;;;0.50;0.40;;;23.90;67.20;;;;;;4996170;28;20045;-57
2022/09/08 01:38:37;;;;;;;0.70;0.60;;;23.90;66.50;;;;;;4997191;28;20030;-53
2022/09/08 01:41:03;;;;;;;0.45;0.43;;;23.90;66.40;;;;;;5007245;28;20045;-57
2022/09/08 01:43:28;;;;;;;1.60;0.35;;;23.90;66.30;;;;;;4999076;28;20046;-61
2022/09/08 01:45:55;;;;;;;0.40;0.40;;;23.90;67.10;;;;;;5004190;28;20051;-59
2022/09/08 01:48:21;;;;;;;0.45;0.40;;;23.90;66.50;;;;;;4995358;28;20038;-57
2022/09/08 01:50:46;;;;;;;0.65;0.40;;;24.00;66.30;;;;;;4999984;28;20046;-57
2022/09/08 01:53:12;;;;;;;2.17;0.30;;;23.90;66.20;;;;;;4999431;28;20046;-56
2022/09/08 01:55:37;;;;;;;0.32;0.30;;;23.90;66.30;;;;;;4999971;28;20539;-59
2022/09/08 01:58:03;;;;;;;1.33;0.30;;;23.90;66.30;;;;;;4994891;28;20117;-56
2022/09/08 02:00:29;;;;;;;0.63;0.63;;;23.90;66.40;;;;;;5002051;28;20042;-61
2022/09/08 02:02:54;;;;;;;1.00;0.43;;;23.90;66.40;;;;;;4998727;28;20409;-55
2022/09/08 02:05:20;;;;;;;0.50;0.40;;;23.90;66.40;;;;;;5010546;28;20099;-57
2022/09/08 02:07:45;;;;;;;0.55;0.30;;;23.90;66.50;;;;;;4992717;28;20034;-50
2022/09/08 02:10:11;;;;;;;0.43;0.38;;;23.90;66.40;;;;;;5014097;28;20034;-58
2022/09/08 02:12:36;;;;;;;0.40;0.40;;;23.90;66.30;;;;;;4999592;28;20563;-54
2022/09/08 02:15:02;;;;;;;0.52;0.38;;;23.90;66.30;;;;;;5017920;28;20062;-60
2022/09/08 02:17:28;;;;;;;0.80;0.50;;;23.90;66.20;;;;;;5003758;28;20049;-53
2022/09/08 02:19:54;;;;;;;0.80;0.40;;;23.90;66.20;;;;;;5009349;28;20605;-50
2022/09/08 02:22:19;;;;;;;0.47;0.30;;;23.90;66.30;;;;;;5004922;28;20048;-53
2022/09/08 02:24:45;;;;;;;0.50;0.30;;;23.90;66.50;;;;;;4998397;28;20046;-54
2022/09/08 02:27:11;;;;;;;0.50;0.20;;;23.90;66.50;;;;;;4994870;28;20046;-59
2022/09/08 02:29:36;;;;;;;0.32;0.30;;;23.90;66.40;;;;;;4999646;28;20424;-51
2022/09/08 02:32:02;;;;;;;0.35;0.28;;;23.90;66.20;;;;;;4999854;28;20235;-52
2022/09/08 02:34:28;;;;;;;0.38;0.28;;;23.90;66.30;;;;;;5000982;28;20045;-55
2022/09/08 02:36:54;;;;;;;0.50;0.28;;;23.90;66.40;;;;;;4997046;28;20041;-50
2022/09/08 02:39:20;;;;;;;0.75;0.40;;;23.90;66.30;;;;;;4995773;28;20054;-61
2022/09/08 02:41:46;;;;;;;1.23;0.43;;;23.90;66.40;;;;;;5000691;28;20111;-59
2022/09/08 02:44:12;;;;;;;0.57;0.30;;;23.90;66.20;;;;;;5007833;28;20497;-59
2022/09/08 02:46:39;;;;;;;0.98;0.28;;;23.90;66.40;;;;;;5005180;28;20065;-47
2022/09/08 02:49:05;;;;;;;0.60;0.40;;;23.80;66.20;;;;;;4995326;28;20045;-53
2022/09/08 02:51:31;;;;;;;0.73;0.45;;;23.90;66.50;;;;;;4997568;28;20385;-46
2022/09/08 02:53:57;;;;;;;2.25;0.35;;;23.90;66.30;;;;;;5002166;28;20417;-50
2022/09/08 02:56:22;;;;;;;0.32;0.30;;;23.90;66.30;;;;;;5004569;28;20054;-47
2022/09/08 02:58:48;;;;;;;0.47;0.30;;;23.90;66.30;;;;;;5007119;28;20481;-50
2022/09/08 03:01:14;;;;;;;0.50;0.40;;;23.90;66.40;;;;;;5002540;28;20547;-54
2022/09/08 03:03:39;;;;;;;0.40;0.40;;;23.80;66.40;;;;;;5004630;28;20038;-52
2022/09/08 03:06:05;;;;;;;0.38;0.22;;;23.90;66.50;;;;;;5002901;28;20065;-53
2022/09/08 03:08:31;;;;;;;1.50;0.55;;;23.90;66.40;;;;;;5008160;28;20576;-59
2022/09/08 03:10:57;;;;;;;0.52;0.35;;;23.80;66.30;;;;;;5001449;28;20145;-51
2022/09/08 03:13:23;;;;;;;1.67;0.30;;;23.90;67.20;;;;;;4996565;28;20185;-52
2022/09/08 03:15:49;;;;;;;0.30;0.30;;;23.90;66.40;;;;;;5000781;28;20045;-50
2022/09/08 03:18:15;;;;;;;0.40;0.40;;;23.90;66.40;;;;;;5012888;28;20042;-50
2022/09/08 03:20:41;;;;;;;0.57;0.57;;;23.80;66.10;;;;;;5000223;28;20533;-48
2022/09/08 03:23:07;;;;;;;0.40;0.20;;;23.80;66.30;;;;;;5003392;28;20100;-54
2022/09/08 03:25:35;;;;;;;0.57;0.55;;;23.80;66.20;;;;;;5022926;28;20198;-59
2022/09/08 03:28:01;;;;;;;0.88;0.30;;;23.80;66.30;;;;;;4998452;28;20042;-62
2022/09/08 03:30:27;;;;;;;0.38;0.32;;;23.80;66.40;;;;;;5015705;28;20531;-58
2022/09/08 03:32:52;;;;;;;0.52;0.40;;;23.80;66.20;;;;;;5000546;28;20105;-52
2022/09/08 03:35:18;;;;;;;0.60;0.50;;;23.80;66.20;;;;;;5003063;28;20041;-53
2022/09/08 03:37:44;;;;;;;0.47;0.40;;;23.80;66.20;;;;;;5005125;28;20515;-56
2022/09/08 03:40:11;;;;;;;0.60;0.40;;;23.80;66.20;;;;;;5007601;28;20453;-53
2022/09/08 03:42:38;;;;;;;0.40;0.32;;;23.80;66.20;;;;;;5006285;28;20117;-59
2022/09/08 03:45:04;;;;;;;0.28;0.28;;;23.80;66.30;;;;;;5000249;28;20034;-53
2022/09/08 03:47:30;;;;;;;0.68;0.40;;;23.80;66.30;;;;;;4998093;28;20054;-62
2022/09/08 03:49:56;;;;;;;0.57;0.35;;;23.80;66.50;;;;;;4998033;28;20065;-53
2022/09/08 03:52:22;;;;;;;0.30;0.30;;;23.80;66.50;;;;;;5000647;28;20504;-49
2022/09/08 03:54:48;;;;;;;0.45;0.30;;;23.80;66.30;;;;;;5000211;28;20042;-49
2022/09/08 03:57:18;;;;;;;0.40;0.40;;;23.80;66.40;;;;;;4998663;28;20483;-57
2022/09/08 03:59:43;;;;;;;0.77;0.50;;;23.80;66.70;;;;;;4999193;28;20041;-56
2022/09/08 04:02:09;;;;;;;0.57;0.20;;;23.80;66.60;;;;;;5005224;28;20046;-49
2022/09/08 04:04:35;;;;;;;0.52;0.20;;;23.80;66.50;;;;;;5012226;28;20072;-48
2022/09/08 04:07:01;;;;;;;0.80;0.40;;;23.80;66.60;;;;;;5004000;28;20500;-52
2022/09/08 04:09:26;;;;;;;0.60;0.40;;;23.80;66.50;;;;;;4995678;28;20051;-57
2022/09/08 04:11:52;;;;;;;0.70;0.50;;;23.80;66.60;;;;;;4996478;28;20061;-54
2022/09/08 04:14:18;;;;;;;0.50;0.43;;;23.80;66.50;;;;;;5001960;28;20386;-61
2022/09/08 04:16:43;;;;;;;0.40;0.40;;;23.80;66.50;;;;;;4995397;28;20449;-58
2022/09/08 04:19:10;;;;;;;0.50;0.50;;;23.80;66.60;;;;;;5000954;28;20034;-57
2022/09/08 04:21:35;;;;;;;1.13;0.40;;;23.80;66.70;;;;;;5028387;28;20420;-48
2022/09/08 04:24:01;;;;;;;0.47;0.40;;;23.80;66.60;;;;;;5001123;28;20083;-55
2022/09/08 04:26:27;;;;;;;0.55;0.40;;;23.80;66.60;;;;;;4999576;28;20549;-48
2022/09/08 04:28:52;;;;;;;0.45;0.35;;;23.80;66.60;;;;;;5000672;28;20045;-55
2022/09/08 04:31:19;;;;;;;0.50;0.30;;;23.80;66.70;;;;;;4998686;28;20129;-51
2022/09/08 04:33:44;;;;;;;0.60;0.50;;;23.80;66.50;;;;;;4997527;28;20098;-47
2022/09/08 04:36:15;;;;;;;0.43;0.30;;;23.80;66.70;;;;;;4993847;28;20038;-47
2022/09/08 04:38:41;;;;;;;0.77;0.40;;;23.80;66.40;;;;;;4995994;28;20121;-51
2022/09/08 04:41:09;;;;;;;0.75;0.50;;;23.80;66.70;;;;;;4993976;28;20121;-47
2022/09/08 04:43:35;;;;;;;0.55;0.30;;;23.80;66.70;;;;;;4998249;28;20218;-54
2022/09/08 04:46:02;;;;;;;0.85;0.55;;;23.70;66.60;;;;;;5000523;28;20561;-46
2022/09/08 04:48:31;;;;;;;0.77;0.38;;;23.70;66.70;;;;;;5000029;28;20645;-56
2022/09/08 04:50:58;;;;;;;0.52;0.50;;;23.70;66.50;;;;;;4996418;28;20044;-53
2022/09/08 04:53:25;;;;;;;2.05;0.50;;;23.80;66.70;;;;;;4998143;28;20038;-49
2022/09/08 04:55:50;;;;;;;1.40;0.25;;;23.80;66.50;;;;;;4997735;28;20065;-57
2022/09/08 04:58:16;;;;;;;0.45;0.35;;;23.80;66.60;;;;;;4996036;28;20512;-56
2022/09/08 05:00:42;;;;;;;0.95;0.50;;;23.70;66.70;;;;;;4998024;28;20034;-55
2022/09/08 05:03:07;;;;;;;0.50;0.40;;;23.70;66.80;;;;;;4997855;28;20428;-31
2022/09/08 05:05:35;;;;;;;1.17;0.20;;;23.70;67.20;;;;;;5004646;28;20072;-52
2022/09/08 05:08:01;;;;;;;1.95;0.50;;;23.70;67.60;;;;;;5003427;28;20501;-56
2022/09/08 05:10:27;;;;;;;0.60;0.30;;;23.70;67.40;;;;;;5001338;28;20043;-50
2022/09/08 05:12:54;;;;;;;2.00;0.35;;;23.70;67.20;;;;;;5002000;28;20309;-55
2022/09/08 05:15:19;;;;;;;4.47;0.60;;;23.70;67.30;;;;;;4999865;28;20483;-50
2022/09/08 05:17:45;;;;;;;1.55;0.30;;;23.70;68.40;;;;;;5001812;28;20170;-47
2022/09/08 05:20:11;;;;;;;0.50;0.35;;;23.70;67.70;;;;;;5000354;28;20038;-47
2022/09/08 05:22:38;;;;;;;0.65;0.50;;;23.70;67.60;;;;;;5002226;28;20049;-51
2022/09/08 05:25:04;;;;;;;0.35;0.30;;;23.70;68.00;;;;;;4998969;28;20151;-59
2022/09/08 05:27:29;;;;;;;0.93;0.57;;;23.70;68.00;;;;;;4998180;28;20107;-52
2022/09/08 05:29:55;;;;;;;0.50;0.35;;;23.70;67.90;;;;;;4999127;28;20601;-47
2022/09/08 05:32:20;;;;;;;0.55;0.47;;;23.80;68.20;;;;;;5000871;28;20060;-55
2022/09/08 05:34:46;;;;;;;0.88;0.65;;;23.80;68.00;;;;;;4999756;28;20508;-47
2022/09/08 05:37:12;;;;;;;0.70;0.60;;;23.80;68.10;;;;;;4993328;28;20042;-42
2022/09/08 05:39:38;;;;;;;1.23;0.68;;;23.80;67.50;;;;;;5000388;28;20049;-45
2022/09/08 05:42:04;;;;;;;6.22;0.40;;;23.70;67.60;;;;;;4997977;28;20121;-58
2022/09/08 05:44:30;;;;;;;2.10;0.60;;;23.70;67.90;;;;;;4999853;28;20103;-56
2022/09/08 05:46:55;;;;;;;1.95;0.55;;;23.70;68.20;;;;;;5013123;28;20198;-57
2022/09/08 05:49:21;;;;;;;2.20;0.70;;;23.70;68.20;;;;;;5010672;28;20589;-51
2022/09/08 05:51:47;;;;;;;1.55;0.90;;;23.80;68.10;;;;;;4999422;28;20042;-56
2022/09/08 05:54:13;;;;;;;5.18;0.77;;;23.80;68.50;;;;;;5000821;28;20050;-61
2022/09/08 05:56:39;;;;;;;1.83;0.77;;;23.70;68.30;;;;;;5004335;28;20054;-58
2022/09/08 05:59:04;;;;;;;0.55;0.40;;;23.70;68.50;;;;;;5019069;28;20053;-58
2022/09/08 06:01:31;;;;;;;1.88;0.90;;;23.70;68.50;;;;;;5002088;28;20121;-55
2022/09/08 06:03:58;;;;;;;3.25;0.80;;;23.70;68.60;;;;;;5004100;28;20053;-51
2022/09/08 06:06:24;;;;;;;0.98;0.68;;;23.70;68.60;;;;;;5009293;28;20042;-56
2022/09/08 06:08:52;;;;;;;2.40;0.95;;;23.70;68.50;;;;;;5002747;28;20049;-54
2022/09/08 06:11:17;;;;;;;3.10;0.70;;;23.70;68.80;;;;;;4651788;28;9999864;-56
2022/09/08 06:13:43;;;;;;;1.20;0.60;;;23.70;68.40;;;;;;5000209;28;20045;-60
2022/09/08 06:16:13;;;;;;;3.38;0.70;;;23.70;68.40;;;;;;4993657;28;20420;-54
2022/09/08 06:18:40;;;;;;;1.60;0.80;;;23.70;68.30;;;;;;4999178;28;20050;-54
2022/09/08 06:21:13;;;;;;;1.40;0.50;;;23.70;68.20;;;;;;4997481;28;20042;-59
2022/09/08 06:23:39;;;;;;;3.17;0.73;;;23.70;68.20;;;;;;5000137;28;20111;-56
2022/09/08 06:26:19;;;;;;;1.13;0.50;;;23.70;68.20;;;;;;5001193;28;20140;-59
2022/09/08 06:29:13;;;;;;;2.38;0.52;;;23.70;68.00;;;;;;4997048;28;20045;-57
2022/09/08 06:32:04;;;;;;;1.45;0.60;;;23.70;68.10;;;;;;5012336;28;20536;-57
2022/09/08 06:34:40;;;;;;;1.00;0.50;;;23.70;68.00;;;;;;5039174;28;20620;-58
2022/09/08 06:37:09;;;;;;;2.03;0.68;;;23.70;67.80;;;;;;5036668;28;20076;-53
2022/09/08 06:39:47;;;;;;;1.42;0.40;;;23.80;67.90;;;;;;5007981;28;20087;-50
2022/09/08 06:42:30;;;;;;;1.77;0.93;;;23.80;67.80;;;;;;5036858;28;28424;-61
2022/09/08 06:44:55;;;;;;;0.50;0.30;;;23.80;67.80;;;;;;5043887;28;20065;-57
2022/09/08 06:47:24;;;;;;;0.70;0.50;;;23.80;67.70;;;;;;5028092;28;20285;-58
2022/09/08 06:49:50;;;;;;;1.10;0.60;;;23.80;67.80;;;;;;5043022;28;20048;-58
2022/09/08 06:52:32;;;;;;;2.33;0.60;;;23.80;67.60;;;;;;5040014;28;20041;-60
2022/09/08 06:55:14;;;;;;;1.05;0.50;;;23.80;67.50;;;;;;5043463;28;20033;-44
2022/09/08 06:57:40;;;;;;;1.48;0.60;;;23.80;67.50;;;;;;5041266;28;20459;-47
2022/09/08 07:00:18;;;;;;;0.60;0.50;;;23.80;67.40;;;;;;5025427;28;20049;-44
2022/09/08 07:02:58;;;;;;;1.02;0.70;;;23.80;67.50;;;;;;5046121;28;20262;-54
2022/09/08 07:05:41;;;;;;;0.90;0.47;;;23.80;67.20;;;;;;5042415;28;20566;-45
2022/09/08 07:08:31;;;;;;;2.15;0.60;;;23.80;67.10;;;;;;5043339;28;20103;-54
2022/09/08 07:11:07;;;;;;;0.88;0.40;;;23.80;67.10;;;;;;5028891;28;20427;-52
2022/09/08 07:13:39;;;;;;;1.08;0.60;;;23.80;67.10;;;;;;4985656;28;20038;-46
2022/09/08 07:16:15;;;;;;;0.70;0.40;;;23.80;67.00;;;;;;4998345;28;20053;-45
2022/09/08 07:18:51;;;;;;;0.55;0.30;;;23.80;67.00;;;;;;4996444;28;20056;-45
2022/09/08 07:21:53;;;;;;;0.65;0.40;;;23.80;66.80;;;;;;5002142;28;20061;-55
2022/09/08 07:24:20;;;;;;;0.75;0.50;;;23.90;66.80;;;;;;4982400;28;20129;-53
2022/09/08 07:26:56;;;;;;;0.40;0.40;;;23.90;66.50;;;;;;4969002;28;20092;-50
2022/09/08 07:29:26;;;;;;;2.08;0.50;;;24.00;66.30;;;;;;5007834;28;20051;-57
2022/09/08 07:31:52;;;;;;;0.47;0.40;;;24.00;66.30;;;;;;4965814;28;20467;-51
2022/09/08 07:34:25;;;;;;;0.50;0.30;;;23.90;66.30;;;;;;4982709;28;20066;-56
2022/09/08 07:36:57;;;;;;;0.83;0.43;;;23.90;66.50;;;;;;4983396;28;20050;-61
2022/09/08 07:39:38;;;;;;;0.90;0.32;;;23.90;66.50;;;;;;5016024;28;20042;-46
2022/09/08 07:42:05;;;;;;;0.82;0.50;;;23.80;66.60;;;;;;4966879;28;20061;-56
2022/09/08 07:44:32;;;;;;;0.52;0.40;;;23.80;66.50;;;;;;5018930;28;20319;-57
2022/09/08 07:46:58;;;;;;;0.55;0.40;;;23.80;66.50;;;;;;4983376;28;20049;-55
2022/09/08 07:49:48;;;;;;;0.52;0.40;;;23.80;66.40;;;;;;4981523;28;20433;-47
2022/09/08 07:52:52;;;;;;;0.50;0.40;;;23.80;66.50;;;;;;4972078;28;20038;-55
2022/09/08 07:55:38;;;;;;;0.95;0.30;;;23.80;66.60;;;;;;4970834;28;20517;-55
2022/09/08 07:58:29;;;;;;;0.77;0.40;;;23.80;66.50;;;;;;5001466;28;20547;-49
2022/09/08 08:01:25;;;;;;;0.98;0.30;;;23.80;66.50;;;;;;5007217;28;20033;-56
2022/09/08 08:04:27;;;;;;;0.70;0.57;;;23.80;66.40;;;;;;5022182;28;20045;-56
2022/09/08 08:06:54;;;;;;;1.15;0.30;;;23.80;66.60;;;;;;5020264;28;20397;-51
2022/09/08 08:09:31;;;;;;;0.70;0.47;;;23.80;66.60;;;;;;5021514;28;20538;-51
2022/09/08 08:12:09;;;;;;;0.60;0.35;;;23.80;66.50;;;;;;5023741;28;20041;-45
2022/09/08 08:14:40;;;;;;;0.50;0.40;;;23.70;66.40;;;;;;5020398;28;20045;-50
2022/09/08 08:17:27;;;;;;;0.43;0.40;;;23.80;66.40;;;;;;5007366;28;20041;-52
2022/09/08 08:20:01;;;;;;;0.50;0.40;;;23.80;66.30;;;;;;5022889;28;20049;-48
2022/09/08 08:22:30;;;;;;;0.40;0.30;;;23.70;66.30;;;;;;5026362;28;20064;-49
2022/09/08 08:25:04;;;;;;;0.82;0.45;;;23.80;66.30;;;;;;5025217;28;20045;-54
2022/09/08 08:27:38;;;;;;;0.50;0.30;;;23.70;66.20;;;;;;5004908;28;20048;-50
2022/09/08 08:30:23;;;;;;;0.80;0.40;;;23.70;66.20;;;;;;5006873;28;20077;-58
2022/09/08 08:32:53;;;;;;;0.63;0.40;;;23.70;66.20;;;;;;4976755;28;20493;-51
2022/09/08 08:35:25;;;;;;;0.45;0.30;;;23.80;66.40;;;;;;4994539;28;20047;-27
2022/09/08 08:37:52;;;;;;;0.43;0.20;;;23.80;66.40;;;;;;4996481;28;20562;-50
2022/09/08 08:40:36;;;;;;;1.25;0.40;;;23.80;66.10;;;;;;4997473;28;20098;-48
2022/09/08 08:43:04;;;;;;;0.57;0.28;;;23.80;66.30;;;;;;4995236;28;20052;-56
2022/09/08 08:45:32;;;;;;;0.50;0.30;;;23.80;66.30;;;;;;4993851;28;20034;-50
2022/09/08 08:48:25;;;;;;;0.65;0.30;;;23.80;66.20;;;;;;4996055;28;20103;-57
2022/09/08 08:51:13;;;;;;;0.82;0.35;;;23.70;66.10;;;;;;4994819;28;20046;-57
2022/09/08 08:53:47;;;;;;;0.63;0.50;;;23.80;66.00;;;;;;4994989;28;20033;-57
2022/09/08 08:56:27;;;;;;;0.43;0.28;;;23.80;66.10;;;;;;4997451;28;20060;-55
2022/09/08 08:59:13;;;;;;;1.40;0.60;;;23.80;66.90;;;;;;4996907;28;20047;-44
2022/09/08 09:02:07;;;;;;;0.73;0.40;;;23.80;66.10;;;;;;4997648;28;20039;-48
2022/09/08 09:04:54;;;;;;;0.55;0.30;;;23.80;66.00;;;;;;5011066;28;20060;-47
2022/09/08 09:07:45;;;;;;;0.50;0.30;;;23.80;66.10;;;;;;4998923;28;20038;-53
2022/09/08 09:10:42;;;;;;;0.40;0.40;;;23.80;66.70;;;;;;4978696;28;20497;-49
2022/09/08 09:13:19;;;;;;;0.60;0.30;;;23.80;66.40;;;;;;4982200;28;20046;-55
2022/09/08 09:16:03;;;;;;;0.60;0.40;;;23.70;66.20;;;;;;4997749;28;20050;-47
2022/09/08 09:18:47;;;;;;;;;;;23.80;66.40;;;;;;4998460;28;20038;-52
2022/09/08 09:21:31;;;;;;;0.65;0.40;;;23.80;66.10;;;;;;4996979;28;19925;-45
2022/09/08 09:24:00;;;;;;;0.88;0.50;;;23.80;65.90;;;;;;4991035;28;20050;-52
2022/09/08 09:26:31;;;;;;;0.43;0.30;;;23.80;66.00;;;;;;4998223;28;20102;-48
2022/09/08 09:29:14;;;;;;;0.52;0.35;;;23.80;65.90;;;;;;4995160;28;20504;-43
2022/09/08 09:32:10;;;;;;;1.27;0.50;;;23.80;65.90;;;;;;4998703;28;20053;-44
2022/09/08 09:35:14;;;;;;;0.90;0.50;;;23.80;65.90;;;;;;4993650;28;20065;-45
2022/09/08 09:37:49;;;;;;;0.47;0.28;;;23.80;65.90;;;;;;4996696;28;20041;-56
2022/09/08 09:40:23;;;;;;;0.65;0.32;;;23.80;65.70;;;;;;4995825;28;20450;-51
2022/09/08 09:42:48;;;;;;;0.30;0.25;;;23.80;65.90;;;;;;4993862;28;20572;-49
2022/09/08 09:45:47;;;;;;;0.98;0.40;;;23.90;65.80;;;;;;4994335;28;20067;-57
2022/09/08 09:48:43;;;;;;;0.52;0.30;;;23.90;65.70;;;;;;4997321;28;20216;-51
2022/09/08 09:51:33;;;;;;;0.82;0.30;;;23.90;65.80;;;;;;4994072;28;20465;-54
2022/09/08 09:54:21;;;;;;;0.32;0.20;;;23.90;65.70;;;;;;4998356;28;20140;-49
2022/09/08 09:56:49;;;;;;;0.40;0.20;;;24.00;65.80;;;;;;4992792;28;20038;-49
2022/09/08 09:59:27;;;;;;;0.50;0.50;;;24.00;65.70;;;;;;4998418;28;20099;-57
2022/09/08 10:02:24;;;;;;;0.40;0.35;;;24.00;65.80;;;;;;4993814;28;20053;-46
2022/09/08 10:05:20;;;;;;;1.02;0.35;;;24.00;66.40;;;;;;4996031;28;20104;-53
2022/09/08 10:07:55;;;;;;;0.70;0.30;;;24.00;65.60;;;;;;4995466;28;20106;-47
2022/09/08 10:10:35;;;;;;;0.57;0.40;;;24.00;65.70;;;;;;5013854;28;20166;-46
2022/09/08 10:13:32;;;;;;;1.02;0.45;;;24.00;65.60;;;;;;5009151;28;20036;-55
2022/09/08 10:16:13;;;;;;;0.45;0.20;;;24.10;65.70;;;;;;4999697;28;20043;-46
2022/09/08 10:18:56;;;;;;;0.20;0.20;;;24.10;65.70;;;;;;5002420;28;20042;-57
2022/09/08 10:22:06;;;;;;;0.55;0.30;;;24.10;65.60;;;;;;4992985;28;20046;-44
2022/09/08 10:25:01;;;;;;;0.30;0.22;;;24.20;65.60;;;;;;5038136;28;20131;-53
2022/09/08 10:27:32;;;;;;;1.60;0.40;;;24.20;65.60;;;;;;5026401;28;20056;-55
2022/09/08 10:30:20;;;;;;;0.80;0.30;;;24.20;65.60;;;;;;5037216;28;20626;-45
2022/09/08 10:32:51;;;;;;;0.50;0.32;;;24.20;65.60;;;;;;4690055;28;10001320;-46
2022/09/08 10:35:28;;;;;;;1.13;0.65;;;24.20;65.70;;;;;;5043669;28;20044;-59
2022/09/08 10:38:19;;;;;;;1.42;0.65;;;24.20;65.70;;;;;;5042325;28;20415;-48
2022/09/08 10:40:56;;;;;;;1.00;0.80;;;24.20;65.80;;;;;;5041694;28;20053;-48
2022/09/08 10:43:37;;;;;;;1.05;0.73;;;24.20;65.90;;;;;;5040184;28;20048;-50
2022/09/08 10:46:26;;;;;;;0.60;0.60;;;24.20;66.00;;;;;;5041020;28;20055;-53
2022/09/08 10:49:10;;;;;;;1.40;0.85;;;24.20;66.00;;;;;;5024781;28;20054;-54
2022/09/08 10:51:43;;;;;;;0.80;0.50;;;24.20;65.90;;;;;;5038887;28;20045;-51
2022/09/08 10:54:21;;;;;;;0.93;0.80;;;24.20;66.00;;;;;;5022196;28;20045;-50
2022/09/08 10:56:47;;;;;;;0.80;0.73;;;24.20;65.90;;;;;;5025309;28;20132;-49
2022/09/08 10:59:24;;;;;;;1.00;0.68;;;24.20;65.90;;;;;;5003320;28;20072;-50
2022/09/08 11:02:08;;;;;;;1.00;0.73;;;24.20;65.70;;;;;;4979388;28;20064;-51
2022/09/08 11:04:49;;;;;;;0.70;0.65;;;24.20;65.70;;;;;;4998058;28;20737;-47
2022/09/08 11:07:14;;;;;;;0.73;0.45;;;24.20;65.70;;;;;;4997807;28;20062;-52
2022/09/08 11:10:00;;;;;;;1.15;0.82;;;24.20;65.90;;;;;;4997252;28;20174;-58
2022/09/08 11:12:59;;;;;;;2.10;0.80;;;24.20;65.80;;;;;;5001609;28;20056;-50
2022/09/08 11:15:39;;;;;;;0.73;0.73;;;24.20;65.90;;;;;;5015038;28;20041;-60
2022/09/08 11:18:40;;;;;;;0.95;0.38;;;24.20;65.70;;;;;;5018170;28;20065;-48
2022/09/08 11:21:30;;;;;;;1.85;1.20;;;24.20;65.60;;;;;;4997340;28;20054;-50
2022/09/08 11:24:27;;;;;;;1.83;0.50;;;24.20;65.70;;;;;;4997368;28;20878;-52
2022/09/08 11:27:33;;;;;;;1.10;0.70;;;24.20;65.70;;;;;;4996363;28;20046;-55
2022/09/08 11:30:17;;;;;;;1.08;0.70;;;24.30;65.60;;;;;;4998710;28;21339;-57
2022/09/08 11:33:06;;;;;;;1.10;0.60;;;24.30;65.80;;;;;;4997204;28;20046;-48
2022/09/08 11:35:56;;;;;;;0.57;0.50;;;24.30;65.70;;;;;;5008299;28;20542;-52
2022/09/08 11:38:27;;;;;;;0.63;0.40;;;24.30;65.70;;;;;;4998309;28;20421;-46
2022/09/08 11:41:08;;;;;;;0.60;0.60;;;24.30;65.70;;;;;;4998882;28;20068;-47
2022/09/08 11:43:48;;;;;;;0.70;0.50;;;24.30;65.70;;;;;;4998479;28;20556;-48
2022/09/08 11:47:28;;;;;;;0.90;0.50;;;24.30;65.60;;;;;;5001022;28;20049;-48
2022/09/08 11:50:24;;;;;;;0.52;0.50;;;24.30;65.60;;;;;;4965312;28;20109;-49
2022/09/08 11:52:52;;;;;;;0.60;0.50;;;24.30;65.60;;;;;;4963080;28;20507;-44
2022/09/08 11:55:42;;;;;;;2.47;0.60;;;24.30;65.60;;;;;;4965561;28;20049;-53
2022/09/08 11:58:26;;;;;;;0.88;0.60;;;24.20;65.60;;;;;;4947567;28;20057;-58
2022/09/08 12:01:00;;;;;;;0.88;0.43;;;24.30;65.70;;;;;;4963593;28;20110;-56
2022/09/08 12:03:48;;;;;;;0.55;0.40;;;24.20;65.60;;;;;;4965783;28;20101;-51
2022/09/08 12:06:35;;;;;;;0.85;0.70;;;24.20;65.70;;;;;;4957770;28;20062;-51
2022/09/08 12:09:25;;;;;;;0.80;0.60;;;24.20;65.70;;;;;;4966118;28;20094;-50
2022/09/08 12:12:05;;;;;;;0.50;0.30;;;24.20;65.70;;;;;;4966565;28;20058;-49
2022/09/08 12:14:56;;;;;;;0.50;0.50;;;24.30;65.70;;;;;;4966454;28;20636;-48
2022/09/08 12:17:32;;;;;;;0.65;0.38;;;24.30;66.30;;;;;;4965835;28;20441;-54
2022/09/08 12:20:21;;;;;;;1.20;0.40;;;24.30;66.30;;;;;;4944345;28;20043;-57
2022/09/08 12:23:02;;;;;;;0.93;0.50;;;24.30;65.80;;;;;;4964025;28;20510;-54
2022/09/08 12:25:50;;;;;;;0.77;0.47;;;24.20;65.50;;;;;;4987696;28;20049;-59
2022/09/08 12:28:23;;;;;;;0.85;0.52;;;24.30;65.50;;;;;;4995284;28;20073;-58
2022/09/08 12:30:55;;;;;;;0.47;0.45;;;24.30;65.50;;;;;;5011306;28;20082;-59
2022/09/08 12:33:36;;;;;;;1.23;0.50;;;24.30;65.40;;;;;;4996639;28;20536;-52
2022/09/08 12:36:14;;;;;;;0.77;0.47;;;24.30;65.20;;;;;;5012573;28;20415;-55
2022/09/08 12:39:09;;;;;;;0.98;0.50;;;24.30;65.20;;;;;;4998485;28;20121;-50
2022/09/08 12:41:56;;;;;;;0.80;0.60;;;24.30;65.30;;;;;;5018222;28;20037;-51
2022/09/08 12:44:31;;;;;;;0.68;0.40;;;24.30;65.10;;;;;;4997536;28;20038;-50
2022/09/08 12:47:22;;;;;;;0.93;0.50;;;24.30;65.20;;;;;;4995283;28;20054;-50
2022/09/08 12:50:02;;;;;;;0.50;0.38;;;24.30;65.00;;;;;;4986976;28;20050;-58
2022/09/08 12:52:27;;;;;;;0.50;0.50;;;24.30;65.10;;;;;;4997496;28;20038;-49
2022/09/08 12:54:59;;;;;;;0.50;0.50;;;24.30;65.10;;;;;;4996019;28;20107;-50
2022/09/08 12:57:40;;;;;;;0.93;0.60;;;24.30;64.90;;;;;;4997191;28;20047;-46
2022/09/08 13:00:12;;;;;;;0.77;0.57;;;24.30;65.00;;;;;;4996701;28;20542;-45
2022/09/08 13:03:19;;;;;;;0.65;0.35;;;24.40;65.10;;;;;;4995466;28;20058;-46
2022/09/08 13:05:56;;;;;;;1.17;0.40;;;24.40;65.90;;;;;;4994046;28;20042;-46
2022/09/08 13:08:21;;;;;;;0.75;0.50;;;24.30;65.70;;;;;;4994426;28;20030;-47
2022/09/08 13:10:49;;;;;;;0.90;0.60;;;24.40;64.90;;;;;;4997449;28;20041;-47
2022/09/08 13:13:31;;;;;;;1.00;0.40;;;24.30;64.80;;;;;;4996801;28;20282;-47
2022/09/08 13:16:06;;;;;;;0.52;0.40;;;24.30;64.80;;;;;;4995776;28;20038;-46
2022/09/08 13:19:08;;;;;;;0.60;0.40;;;24.40;64.90;;;;;;4998964;28;20076;-46
2022/09/08 13:21:40;;;;;;;0.40;0.30;;;24.30;64.80;;;;;;4994165;28;20038;-45
2022/09/08 13:24:30;;;;;;;0.63;0.38;;;24.40;64.90;;;;;;4992466;28;20039;-46
2022/09/08 13:27:30;;;;;;;0.50;0.40;;;24.40;64.80;;;;;;4993439;28;20106;-45
2022/09/08 13:30:09;;;;;;;1.17;0.63;;;24.40;64.80;;;;;;5087466;28;20073;-44